sensor_id;sensor_type;location;lat;lon;timestamp;pressure;altitude;pressure_sealevel;temperature;humidity
11017;BME280;54687;50.800;6.772;2023-05-27T00:00:17;59743.19;;;-144.06;22.95
11017;BME280;54687;50.800;6.772;2023-05-27T00:02:43;59734.81;;;-144.06;22.94
11017;BME280;54687;50.800;6.772;2023-05-27T00:05:12;59709.66;;;-144.06;23.12
11017;BME280;54687;50.800;6.772;2023-05-27T00:07:38;59757.88;;;-144.06;22.91
11017;BME280;54687;50.800;6.772;2023-05-27T00:10:06;59751.59;;;-144.06;23.08
11017;BME280;54687;50.800;6.772;2023-05-27T00:12:33;59747.38;;;-144.06;23.18
11017;BME280;54687;50.800;6.772;2023-05-27T00:15:00;59745.28;;;-144.06;23.17
11017;BME280;54687;50.800;6.772;2023-05-27T00:17:26;59755.78;;;-144.06;23.38
11017;BME280;54687;50.800;6.772;2023-05-27T00:19:55;59768.34;;;-144.06;23.30
11017;BME280;54687;50.800;6.772;2023-05-27T00:22:28;59757.88;;;-144.06;23.44
11017;BME280;54687;50.800;6.772;2023-05-27T00:24:58;59762.06;;;-144.06;23.56
11017;BME280;54687;50.800;6.772;2023-05-27T00:27:27;59762.06;;;-144.06;23.58
11017;BME280;54687;50.800;6.772;2023-05-27T00:29:56;59785.09;;;-144.06;23.58
11017;BME280;54687;50.800;6.772;2023-05-27T00:32:24;59780.91;;;-144.06;23.33
11017;BME280;54687;50.800;6.772;2023-05-27T00:34:51;59778.81;;;-144.06;23.71
11017;BME280;54687;50.800;6.772;2023-05-27T00:37:17;59780.91;;;-144.06;23.63
11017;BME280;54687;50.800;6.772;2023-05-27T00:39:45;59753.69;;;-144.06;23.30
11017;BME280;54687;50.800;6.772;2023-05-27T00:42:12;59778.81;;;-144.06;23.74
11017;BME280;54687;50.800;6.772;2023-05-27T00:44:39;59818.63;;;-144.06;23.82
11017;BME280;54687;50.800;6.772;2023-05-27T00:47:06;59780.91;;;-144.06;23.79
11017;BME280;54687;50.800;6.772;2023-05-27T00:49:33;59789.31;;;-144.06;23.77
11017;BME280;54687;50.800;6.772;2023-05-27T00:51:59;59776.72;;;-144.06;23.70
11017;BME280;54687;50.800;6.772;2023-05-27T00:54:26;59787.19;;;-144.06;23.70
11017;BME280;54687;50.800;6.772;2023-05-27T00:56:55;59801.88;;;-144.06;23.78
11017;BME280;54687;50.800;6.772;2023-05-27T00:59:22;59793.50;;;-144.06;23.72
11017;BME280;54687;50.800;6.772;2023-05-27T01:01:49;59795.59;;;-144.06;23.76
11017;BME280;54687;50.800;6.772;2023-05-27T01:04:16;59751.59;;;-144.06;23.50
11017;BME280;54687;50.800;6.772;2023-05-27T01:06:49;59791.41;;;-144.06;23.63
11017;BME280;54687;50.800;6.772;2023-05-27T01:09:26;59774.63;;;-144.06;23.89
11017;BME280;54687;50.800;6.772;2023-05-27T01:11:59;59785.09;;;-144.06;23.84
11017;BME280;54687;50.800;6.772;2023-05-27T01:14:30;59801.88;;;-144.06;23.77
11017;BME280;54687;50.800;6.772;2023-05-27T01:16:58;59745.28;;;-144.06;23.68
11017;BME280;54687;50.800;6.772;2023-05-27T01:19:30;59785.09;;;-144.06;23.71
11017;BME280;54687;50.800;6.772;2023-05-27T01:21:58;59806.06;;;-144.06;23.87
11017;BME280;54687;50.800;6.772;2023-05-27T01:24:27;59793.50;;;-144.06;23.79
11017;BME280;54687;50.800;6.772;2023-05-27T01:26:54;59793.50;;;-144.06;23.55
11017;BME280;54687;50.800;6.772;2023-05-27T01:29:22;59820.72;;;-144.06;23.57
11017;BME280;54687;50.800;6.772;2023-05-27T01:31:55;59785.09;;;-144.06;23.97
11017;BME280;54687;50.800;6.772;2023-05-27T01:34:28;59822.81;;;-144.06;23.88
11017;BME280;54687;50.800;6.772;2023-05-27T01:36:59;59831.22;;;-144.06;23.67
11017;BME280;54687;50.800;6.772;2023-05-27T01:39:30;59789.31;;;-144.06;23.92
11017;BME280;54687;50.800;6.772;2023-05-27T01:41:59;59824.91;;;-144.06;23.98
11017;BME280;54687;50.800;6.772;2023-05-27T01:44:28;59795.59;;;-144.06;23.85
11017;BME280;54687;50.800;6.772;2023-05-27T01:46:58;59812.34;;;-144.06;23.62
11017;BME280;54687;50.800;6.772;2023-05-27T01:49:25;59810.25;;;-144.06;23.61
11017;BME280;54687;50.800;6.772;2023-05-27T01:51:52;59806.06;;;-144.06;23.91
11017;BME280;54687;50.800;6.772;2023-05-27T01:54:19;59803.97;;;-144.06;23.63
11017;BME280;54687;50.800;6.772;2023-05-27T01:56:46;59822.81;;;-144.06;23.72
11017;BME280;54687;50.800;6.772;2023-05-27T01:59:13;59787.19;;;-144.06;23.83
11017;BME280;54687;50.800;6.772;2023-05-27T02:01:40;59785.09;;;-144.06;23.87
11017;BME280;54687;50.800;6.772;2023-05-27T02:04:07;59789.31;;;-144.06;23.91
11017;BME280;54687;50.800;6.772;2023-05-27T02:06:34;59829.13;;;-144.06;23.72
11017;BME280;54687;50.800;6.772;2023-05-27T02:09:01;59806.06;;;-144.06;24.01
11017;BME280;54687;50.800;6.772;2023-05-27T02:11:28;59789.31;;;-144.06;23.74
11017;BME280;54687;50.800;6.772;2023-05-27T02:13:56;59770.44;;;-144.06;23.91
11017;BME280;54687;50.800;6.772;2023-05-27T02:16:24;59787.19;;;-144.06;23.94
11017;BME280;54687;50.800;6.772;2023-05-27T02:18:51;59820.72;;;-144.06;24.04
11017;BME280;54687;50.800;6.772;2023-05-27T02:21:17;59843.78;;;-144.06;24.00
11017;BME280;54687;50.800;6.772;2023-05-27T02:23:44;59810.25;;;-144.06;24.02
11017;BME280;54687;50.800;6.772;2023-05-27T02:26:11;59818.63;;;-144.06;23.74
11017;BME280;54687;50.800;6.772;2023-05-27T02:28:37;59785.09;;;-144.06;23.84
11017;BME280;54687;50.800;6.772;2023-05-27T02:31:05;59801.88;;;-144.06;23.67
11017;BME280;54687;50.800;6.772;2023-05-27T02:33:32;59797.69;;;-144.06;23.70
11017;BME280;54687;50.800;6.772;2023-05-27T02:35:59;59810.25;;;-144.06;23.95
11017;BME280;54687;50.800;6.772;2023-05-27T02:38:25;59797.69;;;-144.06;23.94
11017;BME280;54687;50.800;6.772;2023-05-27T02:40:52;59810.25;;;-144.06;23.79
11017;BME280;54687;50.800;6.772;2023-05-27T02:43:18;59801.88;;;-144.06;23.82
11017;BME280;54687;50.800;6.772;2023-05-27T02:45:45;59801.88;;;-144.06;23.97
11017;BME280;54687;50.800;6.772;2023-05-27T02:48:13;59801.88;;;-144.06;23.71
11017;BME280;54687;50.800;6.772;2023-05-27T02:50:40;59856.34;;;-144.06;23.86
11017;BME280;54687;50.800;6.772;2023-05-27T02:53:06;59789.31;;;-144.06;23.99
11017;BME280;54687;50.800;6.772;2023-05-27T02:55:33;59797.69;;;-144.06;23.81
11017;BME280;54687;50.800;6.772;2023-05-27T02:58:00;59806.06;;;-144.06;23.80
11017;BME280;54687;50.800;6.772;2023-05-27T03:00:28;59791.41;;;-144.06;24.04
11017;BME280;54687;50.800;6.772;2023-05-27T03:02:55;59824.91;;;-144.06;23.82
11017;BME280;54687;50.800;6.772;2023-05-27T03:05:23;59808.16;;;-144.06;23.98
11017;BME280;54687;50.800;6.772;2023-05-27T03:07:50;59759.97;;;-144.06;23.94
11017;BME280;54687;50.800;6.772;2023-05-27T03:10:16;59806.06;;;-144.06;23.82
11017;BME280;54687;50.800;6.772;2023-05-27T03:12:43;59814.44;;;-144.06;23.79
11017;BME280;54687;50.800;6.772;2023-05-27T03:15:10;59806.06;;;-144.06;23.94
11017;BME280;54687;50.800;6.772;2023-05-27T03:17:37;59797.69;;;-144.06;24.02
11017;BME280;54687;50.800;6.772;2023-05-27T03:20:04;59806.06;;;-144.06;24.02
11017;BME280;54687;50.800;6.772;2023-05-27T03:22:34;59793.50;;;-144.06;23.70
11017;BME280;54687;50.800;6.772;2023-05-27T03:25:02;59810.25;;;-144.06;23.79
11017;BME280;54687;50.800;6.772;2023-05-27T03:27:29;59789.31;;;-144.06;23.92
11017;BME280;54687;50.800;6.772;2023-05-27T03:29:56;59789.31;;;-144.06;23.95
11017;BME280;54687;50.800;6.772;2023-05-27T03:32:23;59785.09;;;-144.06;23.79
11017;BME280;54687;50.800;6.772;2023-05-27T03:34:49;59791.41;;;-144.06;23.58
11017;BME280;54687;50.800;6.772;2023-05-27T03:37:16;59751.59;;;-144.06;23.58
11017;BME280;54687;50.800;6.772;2023-05-27T03:39:44;59789.31;;;-144.06;23.72
11017;BME280;54687;50.800;6.772;2023-05-27T03:42:10;59768.34;;;-144.06;23.58
11017;BME280;54687;50.800;6.772;2023-05-27T03:44:37;59780.91;;;-144.06;23.52
11017;BME280;54687;50.800;6.772;2023-05-27T03:47:05;59776.72;;;-144.06;23.64
11017;BME280;54687;50.800;6.772;2023-05-27T03:49:44;59776.72;;;-144.06;23.45
11017;BME280;54687;50.800;6.772;2023-05-27T03:52:12;59780.91;;;-144.06;23.72
11017;BME280;54687;50.800;6.772;2023-05-27T03:54:39;59783.00;;;-144.06;23.67
11017;BME280;54687;50.800;6.772;2023-05-27T03:57:09;59810.25;;;-144.06;23.66
11017;BME280;54687;50.800;6.772;2023-05-27T03:59:37;59774.63;;;-144.06;23.66
11017;BME280;54687;50.800;6.772;2023-05-27T04:02:05;59755.78;;;-144.06;23.36
11017;BME280;54687;50.800;6.772;2023-05-27T04:04:33;59808.16;;;-144.06;23.45
11017;BME280;54687;50.800;6.772;2023-05-27T04:07:00;59808.16;;;-144.06;23.20
11017;BME280;54687;50.800;6.772;2023-05-27T04:09:26;59764.16;;;-144.06;23.48
11017;BME280;54687;50.800;6.772;2023-05-27T04:11:53;59780.91;;;-144.06;23.53
11017;BME280;54687;50.800;6.772;2023-05-27T04:14:21;59776.72;;;-144.06;23.15
11017;BME280;54687;50.800;6.772;2023-05-27T04:16:47;59795.59;;;-144.06;23.44
11017;BME280;54687;50.800;6.772;2023-05-27T04:19:14;59780.91;;;-144.06;23.38
11017;BME280;54687;50.800;6.772;2023-05-27T04:21:41;59732.72;;;-144.06;23.49
11017;BME280;54687;50.800;6.772;2023-05-27T04:24:07;59776.72;;;-144.06;23.26
11017;BME280;54687;50.800;6.772;2023-05-27T04:26:34;59755.78;;;-144.06;23.46
11017;BME280;54687;50.800;6.772;2023-05-27T04:29:01;59795.59;;;-144.06;23.13
11017;BME280;54687;50.800;6.772;2023-05-27T04:31:30;59778.81;;;-144.06;23.50
11017;BME280;54687;50.800;6.772;2023-05-27T04:33:57;59762.06;;;-144.06;23.34
11017;BME280;54687;50.800;6.772;2023-05-27T04:36:24;59774.63;;;-144.06;23.55
11017;BME280;54687;50.800;6.772;2023-05-27T04:38:52;59759.97;;;-144.06;23.26
11017;BME280;54687;50.800;6.772;2023-05-27T04:41:19;59776.72;;;-144.06;23.22
11017;BME280;54687;50.800;6.772;2023-05-27T04:43:46;59745.28;;;-144.06;23.56
11017;BME280;54687;50.800;6.772;2023-05-27T04:46:13;59776.72;;;-144.06;23.63
11017;BME280;54687;50.800;6.772;2023-05-27T04:48:41;59783.00;;;-144.06;23.26
11017;BME280;54687;50.800;6.772;2023-05-27T04:51:10;59772.53;;;-144.06;23.39
11017;BME280;54687;50.800;6.772;2023-05-27T04:53:36;59780.91;;;-144.06;23.32
11017;BME280;54687;50.800;6.772;2023-05-27T04:56:03;59789.31;;;-144.06;23.53
11017;BME280;54687;50.800;6.772;2023-05-27T04:58:30;59768.34;;;-144.06;23.58
11017;BME280;54687;50.800;6.772;2023-05-27T05:00:57;59785.09;;;-144.06;23.61
11017;BME280;54687;50.800;6.772;2023-05-27T05:03:25;59766.25;;;-144.06;23.37
11017;BME280;54687;50.800;6.772;2023-05-27T05:06:04;59757.88;;;-144.06;23.33
11017;BME280;54687;50.800;6.772;2023-05-27T05:08:30;59726.44;;;-144.06;23.28
11017;BME280;54687;50.800;6.772;2023-05-27T05:10:57;59759.97;;;-144.06;23.26
11017;BME280;54687;50.800;6.772;2023-05-27T05:13:24;59743.19;;;-144.06;23.40
11017;BME280;54687;50.800;6.772;2023-05-27T05:15:54;59759.97;;;-144.06;23.22
11017;BME280;54687;50.800;6.772;2023-05-27T05:18:21;59722.25;;;-144.06;23.30
11017;BME280;54687;50.800;6.772;2023-05-27T05:20:47;59739.00;;;-144.06;23.58
11017;BME280;54687;50.800;6.772;2023-05-27T05:23:16;59749.47;;;-144.06;23.34
11017;BME280;54687;50.800;6.772;2023-05-27T05:25:42;59747.38;;;-144.06;23.40
11017;BME280;54687;50.800;6.772;2023-05-27T05:28:09;59724.34;;;-144.06;23.55
11017;BME280;54687;50.800;6.772;2023-05-27T05:30:36;59759.97;;;-144.06;23.53
11017;BME280;54687;50.800;6.772;2023-05-27T05:33:03;59713.88;;;-144.06;23.21
11017;BME280;54687;50.800;6.772;2023-05-27T05:35:29;59745.28;;;-144.06;23.30
11017;BME280;54687;50.800;6.772;2023-05-27T05:37:56;59730.63;;;-144.06;23.28
11017;BME280;54687;50.800;6.772;2023-05-27T05:40:24;59715.97;;;-144.06;23.14
11017;BME280;54687;50.800;6.772;2023-05-27T05:42:51;59707.56;;;-144.06;23.48
11017;BME280;54687;50.800;6.772;2023-05-27T05:45:17;59695.00;;;-144.06;23.06
11017;BME280;54687;50.800;6.772;2023-05-27T05:47:44;59686.63;;;-144.06;23.27
11017;BME280;54687;50.800;6.772;2023-05-27T05:50:11;59705.47;;;-144.06;22.96
11017;BME280;54687;50.800;6.772;2023-05-27T05:52:38;59667.75;;;-144.06;23.19
11017;BME280;54687;50.800;6.772;2023-05-27T05:55:06;59648.91;;;-144.06;22.95
11017;BME280;54687;50.800;6.772;2023-05-27T05:57:34;59674.06;;;-144.06;22.96
11017;BME280;54687;50.800;6.772;2023-05-27T06:00:00;59642.63;;;-144.06;23.01
11017;BME280;54687;50.800;6.772;2023-05-27T06:02:27;59630.06;;;-144.06;22.98
11017;BME280;54687;50.800;6.772;2023-05-27T06:04:53;59638.44;;;-144.06;22.79
11017;BME280;54687;50.800;6.772;2023-05-27T06:07:20;59651.00;;;-144.06;22.75
11017;BME280;54687;50.800;6.772;2023-05-27T06:09:47;59602.81;;;-144.06;22.67
11017;BME280;54687;50.800;6.772;2023-05-27T06:12:14;59594.44;;;-144.06;22.73
11017;BME280;54687;50.800;6.772;2023-05-27T06:14:42;59563.00;;;-144.06;22.57
11017;BME280;54687;50.800;6.772;2023-05-27T06:17:10;59567.19;;;-144.06;22.50
11017;BME280;54687;50.800;6.772;2023-05-27T06:19:36;59596.53;;;-144.06;22.55
11017;BME280;54687;50.800;6.772;2023-05-27T06:22:03;59583.94;;;-144.06;22.48
11017;BME280;54687;50.800;6.772;2023-05-27T06:24:30;59571.38;;;-144.06;22.39
11017;BME280;54687;50.800;6.772;2023-05-27T06:26:57;59579.75;;;-144.06;22.63
11017;BME280;54687;50.800;6.772;2023-05-27T06:29:25;59556.72;;;-144.06;22.54
11017;BME280;54687;50.800;6.772;2023-05-27T06:31:53;59583.94;;;-144.06;22.37
11017;BME280;54687;50.800;6.772;2023-05-27T06:34:20;59579.75;;;-144.06;22.29
11017;BME280;54687;50.800;6.772;2023-05-27T06:36:47;59552.53;;;-144.06;22.42
11017;BME280;54687;50.800;6.772;2023-05-27T06:39:15;59539.94;;;-144.06;22.33
11017;BME280;54687;50.800;6.772;2023-05-27T06:41:41;59542.03;;;-144.06;22.42
11017;BME280;54687;50.800;6.772;2023-05-27T06:44:08;59548.34;;;-144.06;22.50
11017;BME280;54687;50.800;6.772;2023-05-27T06:46:34;59567.19;;;-144.06;22.50
11017;BME280;54687;50.800;6.772;2023-05-27T06:49:03;59554.63;;;-144.06;22.40
11017;BME280;54687;50.800;6.772;2023-05-27T06:51:30;59533.66;;;-144.06;22.54
11017;BME280;54687;50.800;6.772;2023-05-27T06:53:57;59565.09;;;-144.06;22.35
11017;BME280;54687;50.800;6.772;2023-05-27T06:56:23;59552.53;;;-144.06;22.45
11017;BME280;54687;50.800;6.772;2023-05-27T06:58:51;59546.22;;;-144.06;22.15
11017;BME280;54687;50.800;6.772;2023-05-27T07:01:18;59546.22;;;-144.06;22.34
11017;BME280;54687;50.800;6.772;2023-05-27T07:03:45;59558.81;;;-144.06;22.33
11017;BME280;54687;50.800;6.772;2023-05-27T07:06:12;59498.03;;;-144.06;22.51
11017;BME280;54687;50.800;6.772;2023-05-27T07:08:40;59519.00;;;-144.06;22.17
11017;BME280;54687;50.800;6.772;2023-05-27T07:11:06;59525.28;;;-144.06;22.45
11017;BME280;54687;50.800;6.772;2023-05-27T07:13:33;59542.03;;;-144.06;22.20
11017;BME280;54687;50.800;6.772;2023-05-27T07:16:00;59506.44;;;-144.06;22.31
11017;BME280;54687;50.800;6.772;2023-05-27T07:18:26;59552.53;;;-144.06;22.08
11017;BME280;54687;50.800;6.772;2023-05-27T07:20:53;59512.72;;;-144.06;22.40
11017;BME280;54687;50.800;6.772;2023-05-27T07:23:21;59491.75;;;-144.06;22.11
11017;BME280;54687;50.800;6.772;2023-05-27T07:25:47;59498.03;;;-144.06;22.25
11017;BME280;54687;50.800;6.772;2023-05-27T07:28:14;59531.56;;;-144.06;22.10
11017;BME280;54687;50.800;6.772;2023-05-27T07:30:41;59506.44;;;-144.06;22.33
11017;BME280;54687;50.800;6.772;2023-05-27T07:33:08;59512.72;;;-144.06;22.07
11017;BME280;54687;50.800;6.772;2023-05-27T07:35:35;59544.13;;;-144.06;22.08
11017;BME280;54687;50.800;6.772;2023-05-27T07:38:01;59558.81;;;-144.06;21.95
11017;BME280;54687;50.800;6.772;2023-05-27T07:40:29;59521.09;;;-144.06;22.16
11017;BME280;54687;50.800;6.772;2023-05-27T07:42:58;59508.53;;;-144.06;22.14
11017;BME280;54687;50.800;6.772;2023-05-27T07:45:24;59508.53;;;-144.06;21.90
11017;BME280;54687;50.800;6.772;2023-05-27T07:47:51;59521.09;;;-144.06;22.10
11017;BME280;54687;50.800;6.772;2023-05-27T07:50:17;59537.84;;;-144.06;22.26
11017;BME280;54687;50.800;6.772;2023-05-27T07:52:44;59527.38;;;-144.06;21.96
11017;BME280;54687;50.800;6.772;2023-05-27T07:55:12;59544.13;;;-144.06;21.98
11017;BME280;54687;50.800;6.772;2023-05-27T07:57:40;59527.38;;;-144.06;21.82
11017;BME280;54687;50.800;6.772;2023-05-27T08:00:09;59533.66;;;-144.06;21.91
11017;BME280;54687;50.800;6.772;2023-05-27T08:02:36;59529.47;;;-144.06;21.76
11017;BME280;54687;50.800;6.772;2023-05-27T08:05:03;59533.66;;;-144.06;21.95
11017;BME280;54687;50.800;6.772;2023-05-27T08:07:30;59504.34;;;-144.06;21.83
11017;BME280;54687;50.800;6.772;2023-05-27T08:09:57;59521.09;;;-144.06;22.08
11017;BME280;54687;50.800;6.772;2023-05-27T08:12:23;59544.13;;;-144.06;22.16
11017;BME280;54687;50.800;6.772;2023-05-27T08:14:52;59500.13;;;-144.06;21.90
11017;BME280;54687;50.800;6.772;2023-05-27T08:17:18;59489.66;;;-144.06;21.83
11017;BME280;54687;50.800;6.772;2023-05-27T08:19:45;59510.63;;;-144.06;21.80
11017;BME280;54687;50.800;6.772;2023-05-27T08:22:12;59539.94;;;-144.06;21.73
11017;BME280;54687;50.800;6.772;2023-05-27T08:24:38;59521.09;;;-144.06;22.02
11017;BME280;54687;50.800;6.772;2023-05-27T08:27:05;59479.19;;;-144.06;21.69
11017;BME280;54687;50.800;6.772;2023-05-27T08:29:32;59491.75;;;-144.06;22.08
11017;BME280;54687;50.800;6.772;2023-05-27T08:32:00;59516.91;;;-144.06;21.92
11017;BME280;54687;50.800;6.772;2023-05-27T08:34:30;59489.66;;;-144.06;21.53
11017;BME280;54687;50.800;6.772;2023-05-27T08:36:56;59510.63;;;-144.06;21.83
11017;BME280;54687;50.800;6.772;2023-05-27T08:39:23;59483.38;;;-144.06;21.90
11017;BME280;54687;50.800;6.772;2023-05-27T08:41:50;59512.72;;;-144.06;21.51
11017;BME280;54687;50.800;6.772;2023-05-27T08:44:18;59470.81;;;-144.06;21.58
11017;BME280;54687;50.800;6.772;2023-05-27T08:46:45;59454.03;;;-144.06;21.57
11017;BME280;54687;50.800;6.772;2023-05-27T08:49:15;59470.81;;;-144.06;21.76
11017;BME280;54687;50.800;6.772;2023-05-27T08:51:44;59470.81;;;-144.06;21.32
11017;BME280;54687;50.800;6.772;2023-05-27T08:54:11;59431.00;;;-144.06;21.47
11017;BME280;54687;50.800;6.772;2023-05-27T08:56:40;59443.56;;;-144.06;21.54
11017;BME280;54687;50.800;6.772;2023-05-27T08:59:10;59424.72;;;-144.06;21.64
11017;BME280;54687;50.800;6.772;2023-05-27T09:01:38;59479.19;;;-144.06;21.71
11017;BME280;54687;50.800;6.772;2023-05-27T09:04:05;59437.28;;;-144.06;21.47
11017;BME280;54687;50.800;6.772;2023-05-27T09:06:33;59422.63;;;-144.06;21.36
11017;BME280;54687;50.800;6.772;2023-05-27T09:09:00;59441.47;;;-144.06;21.52
11017;BME280;54687;50.800;6.772;2023-05-27T09:11:27;59433.09;;;-144.06;21.29
11017;BME280;54687;50.800;6.772;2023-05-27T09:13:56;59424.72;;;-144.06;21.33
11017;BME280;54687;50.800;6.772;2023-05-27T09:16:22;59382.81;;;-144.06;21.29
11017;BME280;54687;50.800;6.772;2023-05-27T09:18:49;59387.00;;;-144.06;21.05
11017;BME280;54687;50.800;6.772;2023-05-27T09:21:16;59387.00;;;-144.06;20.96
11017;BME280;54687;50.800;6.772;2023-05-27T09:23:44;59395.38;;;-144.06;21.24
11017;BME280;54687;50.800;6.772;2023-05-27T09:26:12;59405.84;;;-144.06;20.91
11017;BME280;54687;50.800;6.772;2023-05-27T09:28:39;59389.09;;;-144.06;20.73
11017;BME280;54687;50.800;6.772;2023-05-27T09:31:06;59382.81;;;-144.06;20.99
11017;BME280;54687;50.800;6.772;2023-05-27T09:33:35;59366.03;;;-144.06;20.90
11017;BME280;54687;50.800;6.772;2023-05-27T09:36:02;59387.00;;;-144.06;20.71
11017;BME280;54687;50.800;6.772;2023-05-27T09:38:29;59357.66;;;-144.06;20.98
11017;BME280;54687;50.800;6.772;2023-05-27T09:40:57;59330.44;;;-144.06;20.78
11017;BME280;54687;50.800;6.772;2023-05-27T09:43:24;59340.91;;;-144.06;20.78
11017;BME280;54687;50.800;6.772;2023-05-27T09:45:52;59324.16;;;-144.06;20.76
11017;BME280;54687;50.800;6.772;2023-05-27T09:48:20;59301.09;;;-144.06;20.73
11017;BME280;54687;50.800;6.772;2023-05-27T09:50:49;59282.25;;;-144.06;20.61
11017;BME280;54687;50.800;6.772;2023-05-27T09:53:16;59319.94;;;-144.06;20.48
11017;BME280;54687;50.800;6.772;2023-05-27T09:55:43;59290.63;;;-144.06;20.75
11017;BME280;54687;50.800;6.772;2023-05-27T09:58:12;59294.81;;;-144.06;20.46
11017;BME280;54687;50.800;6.772;2023-05-27T10:00:39;59311.56;;;-144.06;20.38
11017;BME280;54687;50.800;6.772;2023-05-27T10:03:06;59303.19;;;-144.06;20.54
11017;BME280;54687;50.800;6.772;2023-05-27T10:05:34;59311.56;;;-144.06;20.35
11017;BME280;54687;50.800;6.772;2023-05-27T10:08:00;59290.63;;;-144.06;20.39
11017;BME280;54687;50.800;6.772;2023-05-27T10:10:28;59324.16;;;-144.06;20.41
11017;BME280;54687;50.800;6.772;2023-05-27T10:12:56;59303.19;;;-144.06;20.26
11017;BME280;54687;50.800;6.772;2023-05-27T10:15:27;59299.00;;;-144.06;20.15
11017;BME280;54687;50.800;6.772;2023-05-27T10:17:55;59294.81;;;-144.06;20.34
11017;BME280;54687;50.800;6.772;2023-05-27T10:20:31;59244.53;;;-144.06;20.13
11017;BME280;54687;50.800;6.772;2023-05-27T10:23:09;59248.72;;;-144.06;20.24
11017;BME280;54687;50.800;6.772;2023-05-27T10:25:36;59290.63;;;-144.06;20.05
11017;BME280;54687;50.800;6.772;2023-05-27T10:28:03;59250.81;;;-144.06;20.24
11017;BME280;54687;50.800;6.772;2023-05-27T10:30:42;59294.81;;;-144.06;20.14
11017;BME280;54687;50.800;6.772;2023-05-27T10:33:09;59311.56;;;-144.06;20.24
11017;BME280;54687;50.800;6.772;2023-05-27T10:35:39;59278.06;;;-144.06;20.26
11017;BME280;54687;50.800;6.772;2023-05-27T10:38:13;59273.84;;;-144.06;20.21
11017;BME280;54687;50.800;6.772;2023-05-27T10:40:40;59229.88;;;-144.06;20.22
11017;BME280;54687;50.800;6.772;2023-05-27T10:43:14;59267.56;;;-144.06;20.13
11017;BME280;54687;50.800;6.772;2023-05-27T10:45:42;59231.97;;;-144.06;20.09
11017;BME280;54687;50.800;6.772;2023-05-27T10:48:15;59179.59;;;-144.06;20.15
11017;BME280;54687;50.800;6.772;2023-05-27T10:50:49;59190.06;;;-144.06;20.20
11017;BME280;54687;50.800;6.772;2023-05-27T10:53:16;59202.63;;;-144.06;20.07
11017;BME280;54687;50.800;6.772;2023-05-27T10:55:44;59219.38;;;-144.06;19.68
11017;BME280;54687;50.800;6.772;2023-05-27T10:58:11;59246.63;;;-144.06;19.79
11017;BME280;54687;50.800;6.772;2023-05-27T11:00:40;59244.53;;;-144.06;19.94
11017;BME280;54687;50.800;6.772;2023-05-27T11:03:17;59246.63;;;-144.06;19.82
11017;BME280;54687;50.800;6.772;2023-05-27T11:05:44;59229.88;;;-144.06;19.76
11017;BME280;54687;50.800;6.772;2023-05-27T11:08:11;59223.56;;;-144.06;19.96
11017;BME280;54687;50.800;6.772;2023-05-27T11:10:40;59219.38;;;-144.06;19.76
11017;BME280;54687;50.800;6.772;2023-05-27T11:13:06;59213.09;;;-144.06;19.71
11017;BME280;54687;50.800;6.772;2023-05-27T11:15:33;59204.72;;;-144.06;19.70
11017;BME280;54687;50.800;6.772;2023-05-27T11:18:00;59177.47;;;-144.06;19.74
11017;BME280;54687;50.800;6.772;2023-05-27T11:20:35;59181.69;;;-144.06;19.51
11017;BME280;54687;50.800;6.772;2023-05-27T11:23:01;59208.91;;;-144.06;19.51
11017;BME280;54687;50.800;6.772;2023-05-27T11:25:28;59213.09;;;-144.06;19.60
11017;BME280;54687;50.800;6.772;2023-05-27T11:27:55;59181.69;;;-144.06;19.77
11017;BME280;54687;50.800;6.772;2023-05-27T11:30:23;59225.66;;;-144.06;19.23
11017;BME280;54687;50.800;6.772;2023-05-27T11:32:50;59213.09;;;-144.06;19.64
11017;BME280;54687;50.800;6.772;2023-05-27T11:35:17;59208.91;;;-144.06;19.60
11017;BME280;54687;50.800;6.772;2023-05-27T11:37:49;59206.81;;;-144.06;19.53
11017;BME280;54687;50.800;6.772;2023-05-27T11:40:16;59213.09;;;-144.06;19.52
11017;BME280;54687;50.800;6.772;2023-05-27T11:42:43;59175.38;;;-144.06;19.65
11017;BME280;54687;50.800;6.772;2023-05-27T11:45:15;59169.09;;;-144.06;19.62
11017;BME280;54687;50.800;6.772;2023-05-27T11:47:43;59183.78;;;-144.06;19.53
11017;BME280;54687;50.800;6.772;2023-05-27T11:50:09;59194.25;;;-144.06;19.56
11017;BME280;54687;50.800;6.772;2023-05-27T11:52:50;59181.69;;;-144.06;19.17
11017;BME280;54687;50.800;6.772;2023-05-27T11:55:16;59204.72;;;-144.06;19.27
11017;BME280;54687;50.800;6.772;2023-05-27T11:57:43;59202.63;;;-144.06;19.18
11017;BME280;54687;50.800;6.772;2023-05-27T12:00:11;59240.34;;;-144.06;18.97
11017;BME280;54687;50.800;6.772;2023-05-27T12:02:37;59236.16;;;-144.06;19.27
11017;BME280;54687;50.800;6.772;2023-05-27T12:05:05;59215.19;;;-144.06;19.48
11017;BME280;54687;50.800;6.772;2023-05-27T12:07:33;59236.16;;;-144.06;19.41
11017;BME280;54687;50.800;6.772;2023-05-27T12:10:01;59215.19;;;-144.06;19.49
11017;BME280;54687;50.800;6.772;2023-05-27T12:12:28;59194.25;;;-144.06;19.09
11017;BME280;54687;50.800;6.772;2023-05-27T12:14:59;59190.06;;;-144.06;19.23
11017;BME280;54687;50.800;6.772;2023-05-27T12:17:26;59208.91;;;-144.06;19.39
11017;BME280;54687;50.800;6.772;2023-05-27T12:19:52;59160.72;;;-144.06;19.55
11017;BME280;54687;50.800;6.772;2023-05-27T12:22:19;59154.44;;;-144.06;19.17
11017;BME280;54687;50.800;6.772;2023-05-27T12:24:46;59156.53;;;-144.06;19.15
11017;BME280;54687;50.800;6.772;2023-05-27T12:27:18;59164.91;;;-144.06;19.33
11017;BME280;54687;50.800;6.772;2023-05-27T12:29:45;59143.97;;;-144.06;19.16
11017;BME280;54687;50.800;6.772;2023-05-27T12:32:12;59114.63;;;-144.06;19.09
11017;BME280;54687;50.800;6.772;2023-05-27T12:34:39;59135.59;;;-144.06;19.01
11017;BME280;54687;50.800;6.772;2023-05-27T12:37:05;59139.78;;;-144.06;19.14
11017;BME280;54687;50.800;6.772;2023-05-27T12:39:32;59114.63;;;-144.06;19.16
11017;BME280;54687;50.800;6.772;2023-05-27T12:41:58;59127.19;;;-144.06;19.06